Flight Track Log - Related Links

Times and Time Zones

All times are in EDT time to prevent confusion due to time zone crossing. See the FLG3729 flight status page for this flight to view local times or setup timezone preferences in your user account.

Time Position Orientation Groundspeed Altitude Reporting Facility
EDT Latitude Longitude Course Direction KTS MPH feet Rate Location/Type
Fri 05:48:43 AM 42.7278 -73.8081 283° West 149 171 1,600  Level Boston Center
Fri 05:49:49 AM 42.7269 -73.8675 269° West 240 276 4,400 2,357 Climbing Boston Center
Fri 05:50:35 AM 42.7722 -73.9108 325° Northwest 258 297 6,000 2,547 Climbing Boston Center
Fri 05:51:00 AM 42.8057 -74.1395 281° West  Level FlightAware Approximate
Fri 05:51:35 AM 42.8339 -73.9719 324° Northwest 275 316 8,900  Level Boston Center
Fri 05:52:00 AM 42.8225 -74.2570 281° West  Level FlightAware Approximate
Fri 05:52:35 AM 42.9000 -74.0331 326° Northwest 280 322 10,700  Level Boston Center
Fri 05:53:00 AM 42.8402 -74.3743 283° West  Level FlightAware Approximate
Fri 05:53:35 AM 42.9464 -74.1333 302° West 298 343 11,600  Level Boston Center
Fri 05:54:00 AM 42.8596 -74.4911 283° West  Level FlightAware Approximate
Fri 05:54:35 AM 42.9653 -74.2589 282° West 327 376 12,700  Level Boston Center
Fri 05:55:35 AM 42.9797 -74.3983 278° West 360 414 13,700 850 Climbing Boston Center
Fri 05:56:35 AM 42.9958 -74.5381 279° West 376 433 14,400 900 Climbing Boston Center
Fri 05:57:35 AM 43.0097 -74.6833 277° West 388 447 15,500 950 Climbing Boston Center
Fri 05:58:35 AM 43.0222 -74.7972 279° West 388 447 16,300 950 Climbing Boston Center
Fri 05:59:35 AM 43.0394 -74.9569 278° West 388 447 17,400 1,050 Climbing Boston Center
Fri 06:00:35 AM 43.0550 -75.1028 278° West 388 447 18,400 1,000 Climbing Boston Center
Fri 06:01:35 AM 43.0683 -75.2453 277° West 388 447 19,400 1,000 Climbing Boston Center
Fri 06:02:35 AM 43.0831 -75.3997 277° West 388 447 20,400 850 Climbing Boston Center
Fri 06:03:35 AM 43.0981 -75.5425 278° West 388 447 21,100 600 Climbing Boston Center
Fri 06:04:35 AM 43.1128 -75.6856 278° West 388 447 21,600 500 Climbing Boston Center
Fri 06:05:35 AM 43.1253 -75.8342 277° West 393 452 22,100 549 Climbing Boston Center
Fri 06:07:08 AM 43.1472 -76.0611 278° West 370 426 23,000 510 Climbing Cleveland Center
Fri 06:08:08 AM 43.1592 -76.2111 276° West 382 440 23,400 500 Climbing Cleveland Center
Fri 06:09:08 AM 43.1481 -76.3600 264° West 388 447 24,000 550 Climbing Cleveland Center
Fri 06:10:08 AM 43.1367 -76.5058 264° West 388 447 24,500 500 Climbing Cleveland Center
Fri 06:11:08 AM 43.1228 -76.6492 262° West 388 447 25,000 500 Climbing Cleveland Center
Fri 06:12:08 AM 43.1103 -76.7750 262° West 388 447 25,500 500 Climbing Cleveland Center
Fri 06:13:08 AM 43.0983 -76.9153 263° West 388 447 26,000 500 Climbing Cleveland Center
Fri 06:14:08 AM 43.0858 -77.0522 263° West 378 435 26,500 500 Climbing Cleveland Center
Fri 06:15:08 AM 43.0731 -77.1867 263° West 367 422 27,000 500 Climbing Cleveland Center
Fri 06:16:08 AM 43.0625 -77.3236 264° West 367 422 27,500 500 Climbing Cleveland Center
Fri 06:17:08 AM 43.0494 -77.4550 262° West 367 422 28,000 250 Climbing Cleveland Center
Fri 06:18:08 AM 43.0347 -77.6036 262° West 362 417 28,000  Level Cleveland Center
Fri 06:19:08 AM 43.0231 -77.7261 263° West 362 417 28,000  Level Cleveland Center
Fri 06:20:08 AM 43.0078 -77.8633 261° West 367 422 28,000  Level Cleveland Center
Fri 06:21:08 AM 42.9944 -78.0200 263° West 377 434 28,000  Level Cleveland Center
Fri 06:22:08 AM 42.9789 -78.1625 262° West 377 434 28,000  Level Cleveland Center
Fri 06:23:08 AM 42.9650 -78.3050 262° West 382 440 28,000  Level Cleveland Center
Fri 06:24:08 AM 42.9511 -78.4472 262° West 382 440 28,000  Level Cleveland Center
Fri 06:25:08 AM 42.9369 -78.5867 262° West 387 445 28,000  Level Cleveland Center
Fri 06:26:08 AM 42.9186 -78.7319 260° West 387 445 28,000  Level Cleveland Center
Fri 06:27:08 AM 42.8978 -78.8714 259° West 387 445 28,000  Level Cleveland Center
Fri 06:28:08 AM 42.8808 -79.0108 261° West 387 445 28,000  Level Cleveland Center
Fri 06:29:08 AM 42.8578 -79.1531 258° West 392 451 28,000  Level Cleveland Center
Fri 06:30:08 AM 42.8386 -79.2950 260° West 392 451 28,000  Level Cleveland Center
Fri 06:31:08 AM 42.8172 -79.4397 259° West 392 451 28,000  Level Cleveland Center
Fri 06:32:08 AM 42.7956 -79.5789 258° West 392 451 28,000  Level Cleveland Center
Fri 06:33:08 AM 42.7739 -79.7261 259° West 392 451 28,000  Level Cleveland Center
Fri 06:34:08 AM 42.7539 -79.8678 259° West 392 451 28,000  Level Cleveland Center
Fri 06:35:08 AM 42.7442 -80.0036 264° West 392 451 28,000  Level Cleveland Center
Fri 06:36:08 AM 42.7386 -80.1506 267° West 392 451 28,000  Level Cleveland Center
Fri 06:37:08 AM 42.7308 -80.3006 266° West 392 451 28,000  Level Cleveland Center
Fri 06:38:08 AM 42.7269 -80.4447 268° West 392 451 28,000  Level Cleveland Center
Fri 06:39:08 AM 42.7186 -80.5944 266° West 392 451 28,000  Level Cleveland Center
Fri 06:40:08 AM 42.7122 -80.7442 267° West 392 451 28,000 -100 Level Cleveland Center
Fri 06:41:08 AM 42.7036 -80.9053 266° West 401 461 27,800 -900 Descending Cleveland Center
Fri 06:42:08 AM 42.6864 -81.0578 261° West 401 461 26,200 -1,537 Descending Cleveland Center
Fri 06:43:09 AM 42.6689 -81.2072 261° West 408 470 24,700 -1,500 Descending Cleveland Center
Fri 06:44:08 AM 42.6536 -81.3594 262° West 415 478 23,200 -1,513 Descending Cleveland Center
Fri 06:45:08 AM 42.6358 -81.5089 261° West 416 479 21,700 -1,500 Descending Cleveland Center
Fri 06:46:08 AM 42.6156 -81.6581 260° West 405 466 20,200 -1,400 Descending Cleveland Center
Fri 06:47:08 AM 42.6042 -81.7736 262° West 399 459 18,900 -1,450 Descending Cleveland Center
Fri 06:48:08 AM 42.5836 -81.9311 260° West 393 452 17,300 -1,550 Descending Cleveland Center
Fri 06:49:08 AM 42.5653 -82.0689 260° West 388 447 15,800 -1,596 Descending Cleveland Center
Fri 06:49:57 AM 42.5508 -82.2008 262° West 377 434 14,400 -1,300 Descending Cleveland Center
Fri 06:51:08 AM 42.5300 -82.3525 259° West 388 447 13,200 -1,008 Descending Cleveland Center
Fri 06:52:08 AM 42.5153 -82.4903 262° West 388 447 12,200 -600 Descending Cleveland Center
Fri 06:53:08 AM 42.4817 -82.6186 250° West 378 435 12,000 -100 Descending Cleveland Center
Fri 06:54:08 AM 42.4378 -82.7383 244° Southwest 366 421 12,000  Level Cleveland Center
Fri 06:55:08 AM 42.3939 -82.8633 245° Southwest 366 421 12,000  Level Cleveland Center
Fri 06:56:08 AM 42.3497 -82.9853 244° Southwest 366 421 12,000  Level Cleveland Center
Fri 06:57:08 AM 42.3053 -83.1044 243° Southwest 366 421 12,000 -100 Level Cleveland Center
Fri 06:58:08 AM 42.2600 -83.1811 231° Southwest 303 349 11,800 -800 Descending Cleveland Center
Fri 06:59:08 AM 42.2025 -83.2322 213° Southwest 265 305 10,400 -1,500 Descending Cleveland Center
Fri 07:00:16 AM 42.1344 -83.2908 213° Southwest 238 274 8,600 -1,689 Descending Cleveland Center
Fri 07:01:23 AM 42.0706 -83.3414 210° Southwest 240 276 6,600 -1,869 Descending Cleveland Center
Fri 07:02:18 AM 42.0236 -83.3922 219° Southwest 234 269 4,800 -1,770 Descending Cleveland Center
Fri 07:03:25 AM 42.0508 -83.4636 297° West 192 221 3,000 -851 Descending Cleveland Center
Fri 07:04:32 AM 42.1033 -83.4547 North 181 208 2,900 -90 Descending Cleveland Center

Login

Don't have an account? Register now (free) for customized features, flight alerts, and more!